createdAt,value
2022-08-05T00:03:25.352Z,18.35
2022-08-05T00:08:35.258Z,18.35
2022-08-05T00:14:02.176Z,18.35
2022-08-05T00:19:24.893Z,18.32
2022-08-05T00:25:12.787Z,18.25
2022-08-05T00:30:21.273Z,18.14
2022-08-05T00:35:37.537Z,18.01
2022-08-05T00:41:01.420Z,17.89
2022-08-05T00:46:03.849Z,17.79
2022-08-05T00:51:08.856Z,17.72
2022-08-05T00:56:31.352Z,17.63
2022-08-05T01:06:51.804Z,17.48
2022-08-05T01:12:09.111Z,17.40
2022-08-05T01:17:21.527Z,17.31
2022-08-05T01:22:28.125Z,17.26
2022-08-05T01:28:07.068Z,17.26
2022-08-05T01:33:12.477Z,17.27
2022-08-05T01:38:43.827Z,17.25
2022-08-05T01:43:49.896Z,17.21
2022-08-05T01:48:54.545Z,17.16
2022-08-05T01:53:59.466Z,17.12
2022-08-05T01:59:16.384Z,17.09
2022-08-05T02:04:21.008Z,17.08
2022-08-05T02:09:45.750Z,17.05
2022-08-05T02:15:12.486Z,16.97
2022-08-05T02:20:22.172Z,16.90
2022-08-05T02:25:33.089Z,16.86
2022-08-05T02:31:08.183Z,16.86
2022-08-05T02:36:20.603Z,16.87
2022-08-05T02:46:53.340Z,16.85
2022-08-05T02:52:06.270Z,16.81
2022-08-05T02:58:20.022Z,16.82
2022-08-05T03:02:52.810Z,16.85
2022-08-05T03:08:01.430Z,16.86
2022-08-05T03:13:16.572Z,16.87
2022-08-05T03:18:24.726Z,16.87
2022-08-05T03:23:34.637Z,16.87
2022-08-05T03:28:37.179Z,16.94
2022-08-05T03:33:51.310Z,17.06
2022-08-05T03:38:55.715Z,17.19
2022-08-05T03:44:08.533Z,17.30
2022-08-05T03:49:14.883Z,17.43
2022-08-05T03:56:03.615Z,17.57
2022-08-05T04:00:15.546Z,17.80
2022-08-05T04:05:23.133Z,17.98
2022-08-05T04:10:28.395Z,18.15
2022-08-05T04:16:03.362Z,18.32
2022-08-05T04:21:07.251Z,18.52
2022-08-05T04:26:18.638Z,18.73
2022-08-05T04:31:21.315Z,18.96
2022-08-05T04:36:49.827Z,19.19
2022-08-05T04:41:52.918Z,19.40
2022-08-05T04:46:59.282Z,19.58
2022-08-05T04:52:01.731Z,19.83
2022-08-05T04:57:04.246Z,20.06
2022-08-05T05:02:37.136Z,20.33
2022-08-05T05:07:35.608Z,20.64
2022-08-05T05:12:47.331Z,20.86
2022-08-05T05:17:56.335Z,21.14
2022-08-05T05:23:08.380Z,21.40
2022-08-05T05:28:25.317Z,21.67
2022-08-05T05:33:28.013Z,21.91
2022-08-05T05:39:00.172Z,22.13
2022-08-05T05:44:02.904Z,22.39
2022-08-05T05:49:28.847Z,22.66
2022-08-05T05:54:50.893Z,22.93
2022-08-05T06:00:01.330Z,23.21
2022-08-05T06:05:16.604Z,23.48
2022-08-05T06:10:52.558Z,23.78
2022-08-05T06:21:08.027Z,24.37
2022-08-05T06:26:25.138Z,24.67
2022-08-05T06:31:41.900Z,25.01
2022-08-05T06:36:57.657Z,25.32
2022-08-05T06:42:07.496Z,25.60
2022-08-05T06:47:30.265Z,25.91
2022-08-05T06:52:38.018Z,26.26
2022-08-05T06:58:03.578Z,26.54
2022-08-05T07:03:05.288Z,26.80
2022-08-05T07:08:12.111Z,27.04
2022-08-05T07:13:58.515Z,27.21
2022-08-05T07:19:02.864Z,27.43
2022-08-05T07:24:12.021Z,27.62
2022-08-05T07:29:15.910Z,27.83
2022-08-05T07:34:21.275Z,28.07
2022-08-05T07:40:04.463Z,28.30
2022-08-05T07:44:52.513Z,28.53
2022-08-05T07:49:54.898Z,28.73
2022-08-05T07:54:57.358Z,28.87
2022-08-05T08:00:35.386Z,28.99
2022-08-05T08:05:49.698Z,29.12
2022-08-05T08:10:55.410Z,29.27
2022-08-05T08:16:35.545Z,29.48
2022-08-05T08:21:20.581Z,29.72
2022-08-05T08:26:59.959Z,29.85
2022-08-05T08:32:45.577Z,30.06
2022-08-05T08:38:05.627Z,30.20
2022-08-05T08:45:04.465Z,30.37
2022-08-05T08:49:03.019Z,30.55
2022-08-05T08:53:58.799Z,30.67
2022-08-05T08:59:14.989Z,30.85
2022-08-05T09:04:30.455Z,31.06
2022-08-05T09:09:40.754Z,31.19
2022-08-05T09:14:58.676Z,31.36
2022-08-05T09:20:05.714Z,31.50
2022-08-05T09:25:24.574Z,31.62
2022-08-05T09:31:22.459Z,31.81
2022-08-05T09:36:59.716Z,31.85
2022-08-05T09:42:07.756Z,31.90
2022-08-05T09:52:29.104Z,32.15
2022-08-05T09:57:39.513Z,32.24
2022-08-05T10:02:45.058Z,32.36
2022-08-05T10:08:35.741Z,32.39
2022-08-05T10:13:44.053Z,32.52
2022-08-05T10:18:53.168Z,32.60
2022-08-05T10:24:15.051Z,32.68
2022-08-05T10:29:24.147Z,32.76
2022-08-05T10:34:45.248Z,32.94
2022-08-05T10:40:03.308Z,33.03
2022-08-05T10:45:40.044Z,33.11
2022-08-05T10:51:03.338Z,33.21
2022-08-05T10:56:21.405Z,33.34
2022-08-05T11:02:03.650Z,33.39
2022-08-05T11:07:11.258Z,33.43
2022-08-05T11:12:54.345Z,33.48
2022-08-05T11:18:27.292Z,33.62
2022-08-05T11:24:04.145Z,33.65
2022-08-05T11:29:21.900Z,33.68
2022-08-05T11:34:39.020Z,33.75
2022-08-05T11:40:02.845Z,33.91
2022-08-05T11:50:38.399Z,34.13
2022-08-05T11:56:01.248Z,34.26
2022-08-05T12:01:08.321Z,34.49
2022-08-05T12:06:16.672Z,34.81
2022-08-05T12:11:50.404Z,34.96
2022-08-05T12:18:03.077Z,35.15
2022-08-05T12:22:36.788Z,35.29
2022-08-05T12:28:03.326Z,35.55
2022-08-05T12:33:07.247Z,35.75
2022-08-05T12:38:30.196Z,35.83
2022-08-05T12:43:34.529Z,36.01
2022-08-05T12:48:42.617Z,36.13
2022-08-05T12:53:47.364Z,36.24
2022-08-05T12:59:21.094Z,36.10
2022-08-05T13:04:32.509Z,36.04
2022-08-05T13:09:45.893Z,36.15
2022-08-05T13:15:06.713Z,36.33
2022-08-05T13:20:40.964Z,36.49
2022-08-05T13:26:03.431Z,36.60
2022-08-05T13:31:14.438Z,37.28
2022-08-05T13:36:18.353Z,37.90
2022-08-05T13:41:20.936Z,38.43
2022-08-05T13:47:04.807Z,38.90
2022-08-05T13:52:15.794Z,39.26
2022-08-05T13:57:26.480Z,39.43
2022-08-05T14:02:55.182Z,39.12
2022-08-05T14:08:05.853Z,38.68
2022-08-05T14:13:11.072Z,38.00
2022-08-05T14:18:48.353Z,37.51
2022-08-05T14:23:57.157Z,37.68
2022-08-05T14:29:03.604Z,38.78
2022-08-05T14:34:06.031Z,39.62
2022-08-05T14:39:14.555Z,40.59
2022-08-05T14:44:27.874Z,41.00
2022-08-05T14:49:56.759Z,40.61
2022-08-05T14:55:02.560Z,40.54
2022-08-05T15:00:29.435Z,40.10
2022-08-05T15:06:12.948Z,39.91
2022-08-05T15:10:59.505Z,40.01
2022-08-05T15:16:05.946Z,40.77
2022-08-05T15:21:09.683Z,42.52
2022-08-05T15:26:12.137Z,42.56
2022-08-05T15:31:17.629Z,43.51
2022-08-05T15:43:45.843Z,45.85
2022-08-05T15:48:52.493Z,46.39
2022-08-05T15:54:34.476Z,46.59
2022-08-05T15:59:38.173Z,46.64
2022-08-05T16:05:11.239Z,46.39
2022-08-05T16:10:17.334Z,46.25
2022-08-05T16:15:35.701Z,45.49
2022-08-05T16:20:38.120Z,44.91
2022-08-05T16:26:11.011Z,43.13
2022-08-05T16:31:22.176Z,40.73
2022-08-05T16:36:44.589Z,39.36
2022-08-05T16:42:27.626Z,37.92
2022-08-05T16:47:28.918Z,36.90
2022-08-05T16:52:36.643Z,35.81
2022-08-05T16:57:59.883Z,34.92
2022-08-05T17:03:04.656Z,34.07
2022-08-05T17:13:37.658Z,32.55
2022-08-05T17:18:43.854Z,31.83
2022-08-05T17:24:04.370Z,31.24
2022-08-05T17:29:11.528Z,30.85
2022-08-05T17:34:17.847Z,30.54
2022-08-05T17:40:26.296Z,30.25
2022-08-05T17:45:38.465Z,29.91
2022-08-05T17:50:41.632Z,29.60
2022-08-05T17:55:44.399Z,29.34
2022-08-05T18:00:50.508Z,29.00
2022-08-05T18:05:56.515Z,28.66
2022-08-05T18:11:23.701Z,28.32
2022-08-05T18:16:51.503Z,27.95
2022-08-05T18:22:08.499Z,27.60
2022-08-05T18:27:18.728Z,27.29
2022-08-05T18:32:28.255Z,26.99
2022-08-05T18:37:40.305Z,26.66
2022-08-05T18:42:52.227Z,26.35
2022-08-05T18:47:56.429Z,26.09
2022-08-05T18:52:59.641Z,25.82
2022-08-05T18:58:03.665Z,25.57
2022-08-05T19:03:55.650Z,25.35
2022-08-05T19:09:08.434Z,25.13
2022-08-05T19:14:59.594Z,24.93
2022-08-05T19:19:37.288Z,24.75
2022-08-05T19:27:44.815Z,24.44
2022-08-05T19:32:47.485Z,24.19
2022-08-05T19:38:06.082Z,24.02
2022-08-05T19:43:09.838Z,23.86
2022-08-05T19:48:48.446Z,23.63
2022-08-05T19:54:05.303Z,23.46
2022-08-05T19:59:51.097Z,23.30
2022-08-05T20:04:34.781Z,23.21
2022-08-05T20:09:54.788Z,23.18
2022-08-05T20:15:13.602Z,23.16
2022-08-05T20:20:19.081Z,23.11
2022-08-05T20:25:24.699Z,23.02
2022-08-05T20:31:03.711Z,22.89
2022-08-05T20:36:22.364Z,22.77
2022-08-05T20:41:27.028Z,22.67
2022-08-05T20:50:05.430Z,22.61
2022-08-05T20:55:55.097Z,22.58
2022-08-05T21:00:51.888Z,22.60
2022-08-05T21:05:57.365Z,22.64
2022-08-05T21:11:01.641Z,22.73
2022-08-05T21:16:30.810Z,22.91
2022-08-05T21:21:44.232Z,23.04
2022-08-05T21:26:58.306Z,23.19
2022-08-05T21:32:02.666Z,23.27
2022-08-05T21:37:13.836Z,23.30
2022-08-05T21:42:40.881Z,23.30
2022-08-05T21:47:56.355Z,23.27
2022-08-05T21:53:04.549Z,23.24
2022-08-05T21:58:24.935Z,23.30
2022-08-05T22:04:14.337Z,23.41
2022-08-05T22:09:21.110Z,23.51
2022-08-05T22:14:37.324Z,23.53
2022-08-05T22:20:02.501Z,23.45
2022-08-05T22:25:31.025Z,23.35
2022-08-05T22:30:56.810Z,23.25
2022-08-05T22:36:23.992Z,23.15
2022-08-05T22:42:09.591Z,23.01
2022-08-05T22:52:47.314Z,22.74
2022-08-05T22:57:57.281Z,22.64
2022-08-05T23:03:00.995Z,22.55
2022-08-05T23:08:12.154Z,22.49
2022-08-05T23:13:16.683Z,22.42
2022-08-05T23:18:25.546Z,22.35
2022-08-05T23:23:39.179Z,22.27
2022-08-05T23:28:43.259Z,22.25
2022-08-05T23:34:05.323Z,22.22
2022-08-05T23:39:08.802Z,22.13
2022-08-05T23:44:11.345Z,22.10
2022-08-05T23:56:32.800Z,21.89
